Back to Top

Language: 

My Weather Underground Personal Weather Station Historical Data with Graphs...

Delerius Weather Station Historical Data
Daily Summary for October 11, 2017 Units:  English    Metric   Both
« Previous Day
Next Day »
Daily Weekly Monthly Yearly Custom
  High: Low: Average:
Temperature: 60.1 °F 51.6 °F 57.5 °F
Dew Point: 55.1 °F 45.3 °F 52.5 °F
Humidity: 91 % 77 % 84 %
Wind Speed: 21.0 mph 8.0 mph 14 mph
Wind Gust: 39.0 mph - -
Wind:- - WSW
Pressure: 29.78 in 29.57 in -
Precipitation: 0.03 in    
Historical Graphs
 
 
Tabular Data for October 11, 2017
Time Temperature Dew Point Pressure Wind Wind Speed Wind Gust Humidity Rainfall Rate (Hourly) solar Conditions
00:01 57.0 °F 50.2 °F 29.75 in WSW 12.0 mph 23.0 mph 78 % 0.00 in 0 W/m2
00:02 57.2 °F 50.4 °F 29.74 in WSW 13.0 mph 23.0 mph 78 % 0.00 in 0 W/m2
00:07 57.2 °F 50.4 °F 29.74 in WSW 12.0 mph 23.0 mph 78 % 0.00 in 0 W/m2
00:12 57.4 °F 50.6 °F 29.74 in WSW 10.0 mph 18.0 mph 78 % 0.00 in 0 W/m2
00:17 57.4 °F 50.6 °F 29.74 in WSW 11.0 mph 19.0 mph 78 % 0.00 in 0 W/m2
00:22 57.4 °F 50.6 °F 29.74 in WSW 12.0 mph 19.0 mph 78 % 0.00 in 0 W/m2
00:27 57.6 °F 50.8 °F 29.74 in WSW 13.0 mph 23.0 mph 78 % 0.00 in 0 W/m2
00:32 57.6 °F 50.8 °F 29.74 in WSW 12.0 mph 23.0 mph 78 % 0.00 in 0 W/m2
00:34 57.6 °F 50.8 °F 29.74 in WSW 11.0 mph 20.0 mph 78 % 0.00 in 0 W/m2
00:39 57.7 °F 50.9 °F 29.74 in WSW 11.0 mph 18.0 mph 78 % 0.00 in 0 W/m2
00:44 57.9 °F 51.1 °F 29.73 in WSW 13.0 mph 23.0 mph 78 % 0.00 in 0 W/m2
00:49 57.9 °F 51.1 °F 29.73 in WSW 13.0 mph 23.0 mph 78 % 0.00 in 0 W/m2
00:54 57.9 °F 50.8 °F 29.73 in WSW 11.0 mph 24.0 mph 77 % 0.00 in 0 W/m2
00:59 57.7 °F 50.9 °F 29.73 in WSW 12.0 mph 24.0 mph 78 % 0.00 in 0 W/m2
01:04 57.6 °F 51.1 °F 29.73 in SW 12.0 mph 21.0 mph 79 % 0.00 in 0 W/m2
01:09 57.4 °F 50.9 °F 29.73 in SW 11.0 mph 21.0 mph 79 % 0.00 in 0 W/m2
01:14 57.4 °F 51.3 °F 29.73 in SW 13.0 mph 21.0 mph 80 % 0.00 in 0 W/m2
01:19 57.4 °F 51.6 °F 29.72 in SW 12.0 mph 21.0 mph 81 % 0.00 in 0 W/m2
01:24 57.2 °F 51.8 °F 29.72 in SW 10.0 mph 18.0 mph 82 % 0.00 in 0 W/m2
01:29 57.2 °F 52.1 °F 29.72 in SW 11.0 mph 22.0 mph 83 % 0.00 in 0 W/m2
01:34 57.4 °F 52.3 °F 29.72 in WSW 12.0 mph 22.0 mph 83 % 0.00 in 0 W/m2
01:39 57.4 °F 52.3 °F 29.72 in WSW 12.0 mph 24.0 mph 83 % 0.00 in 0 W/m2
01:45 57.6 °F 52.8 °F 29.72 in WSW 13.0 mph 24.0 mph 84 % 0.00 in 0 W/m2
01:50 57.4 °F 52.9 °F 29.72 in WSW 13.0 mph 23.0 mph 85 % 0.00 in 0 W/m2
01:55 57.2 °F 53.0 °F 29.72 in SW 13.0 mph 23.0 mph 86 % 0.00 in 0 W/m2
02:00 57.0 °F 52.9 °F 29.71 in SW 14.0 mph 28.0 mph 86 % 0.00 in 0 W/m2
02:04 57.2 °F 53.0 °F 29.72 in SW 13.0 mph 28.0 mph 86 % 0.00 in 0 W/m2
02:10 57.2 °F 53.0 °F 29.72 in SW 12.0 mph 20.0 mph 86 % 0.00 in 0 W/m2
02:15 57.4 °F 52.9 °F 29.71 in SW 13.0 mph 20.0 mph 85 % 0.00 in 0 W/m2
02:20 57.4 °F 52.9 °F 29.71 in SW 12.0 mph 20.0 mph 85 % 0.00 in 0 W/m2
02:25 57.4 °F 52.9 °F 29.71 in SW 11.0 mph 22.0 mph 85 % 0.00 in 0 W/m2
02:30 57.4 °F 52.9 °F 29.71 in SW 11.0 mph 22.0 mph 85 % 0.00 in 0 W/m2
02:35 57.4 °F 52.9 °F 29.71 in SW 11.0 mph 20.0 mph 85 % 0.00 in 0 W/m2
02:40 57.4 °F 52.9 °F 29.71 in SSW 11.0 mph 20.0 mph 85 % 0.00 in 0 W/m2
02:45 57.4 °F 52.9 °F 29.71 in SSW 11.0 mph 20.0 mph 85 % 0.00 in 0 W/m2
02:50 57.4 °F 52.9 °F 29.70 in SSW 11.0 mph 20.0 mph 85 % 0.00 in 0 W/m2
02:55 57.4 °F 52.9 °F 29.70 in SSW 11.0 mph 20.0 mph 85 % 0.00 in 0 W/m2
03:00 57.4 °F 52.9 °F 29.70 in SSW 10.0 mph 15.0 mph 85 % 0.00 in 0 W/m2
03:05 57.6 °F 53.4 °F 29.70 in SSW 11.0 mph 21.0 mph 86 % 0.00 in 0 W/m2
03:06 57.6 °F 53.4 °F 29.69 in SSW 11.0 mph 21.0 mph 86 % 0.00 in 0 W/m2
03:11 57.7 °F 53.6 °F 29.69 in SW 10.0 mph 19.0 mph 86 % 0.00 in 0 W/m2
03:16 57.7 °F 53.6 °F 29.69 in SW 9.0 mph 13.0 mph 86 % 0.00 in 0 W/m2
03:21 57.9 °F 53.8 °F 29.69 in SSW 9.0 mph 14.0 mph 86 % 0.00 in 0 W/m2
03:26 57.9 °F 53.8 °F 29.69 in SSW 10.0 mph 19.0 mph 86 % 0.00 in 0 W/m2
03:31 58.3 °F 54.1 °F 29.68 in SW 10.0 mph 19.0 mph 86 % 0.00 in 0 W/m2
03:41 59.2 °F 54.7 °F 29.68 in SW 12.0 mph 23.0 mph 85 % 0.00 in 0 W/m2
03:46 59.5 °F 55.0 °F 29.68 in SW 14.0 mph 24.0 mph 85 % 0.00 in 0 W/m2
03:51 59.7 °F 54.9 °F 29.68 in SW 13.0 mph 24.0 mph 84 % 0.00 in 0 W/m2
03:56 59.9 °F 54.7 °F 29.68 in SW 14.0 mph 32.0 mph 83 % 0.00 in 0 W/m2
04:01 60.1 °F 54.9 °F 29.67 in SW 16.0 mph 32.0 mph 83 % 0.00 in 0 W/m2
04:12 60.1 °F 54.9 °F 29.67 in SW 13.0 mph 23.0 mph 83 % 0.00 in 0 W/m2
04:17 60.1 °F 54.9 °F 29.67 in SW 12.0 mph 21.0 mph 83 % 0.00 in 0 W/m2
04:23 60.1 °F 54.9 °F 29.67 in SW 12.0 mph 21.0 mph 83 % 0.00 in 0 W/m2
04:25 59.9 °F 54.7 °F 29.67 in SW 12.0 mph 21.0 mph 83 % 0.00 in 0 W/m2
04:29 59.9 °F 54.7 °F 29.67 in SW 14.0 mph 22.0 mph 83 % 0.00 in 0 W/m2
04:35 59.9 °F 54.7 °F 29.67 in SW 14.0 mph 28.0 mph 83 % 0.00 in 0 W/m2
04:45 59.9 °F 54.7 °F 29.67 in SW 16.0 mph 28.0 mph 83 % 0.00 in 0 W/m2
04:48 59.9 °F 54.7 °F 29.67 in SW 16.0 mph 28.0 mph 83 % 0.00 in 0 W/m2
04:53 59.7 °F 54.5 °F 29.66 in WSW 13.0 mph 26.0 mph 83 % 0.00 in 0 W/m2
04:58 59.7 °F 54.5 °F 29.66 in WSW 12.0 mph 23.0 mph 83 % 0.00 in 0 W/m2
05:03 59.7 °F 54.5 °F 29.66 in SW 16.0 mph 32.0 mph 83 % 0.00 in 0 W/m2
05:08 59.7 °F 54.5 °F 29.66 in SW 18.0 mph 32.0 mph 83 % 0.00 in 0 W/m2
05:13 59.7 °F 54.5 °F 29.66 in SW 16.0 mph 32.0 mph 83 % 0.00 in 0 W/m2
05:18 59.7 °F 54.5 °F 29.65 in SW 14.0 mph 24.0 mph 83 % 0.00 in 0 W/m2
05:23 59.7 °F 54.5 °F 29.66 in SW 12.0 mph 23.0 mph 83 % 0.00 in 0 W/m2
05:28 59.7 °F 54.5 °F 29.65 in SW 13.0 mph 29.0 mph 83 % 0.00 in 0 W/m2
05:33 59.7 °F 54.5 °F 29.64 in SW 16.0 mph 29.0 mph 83 % 0.00 in 0 W/m2
05:38 59.7 °F 54.5 °F 29.65 in SW 15.0 mph 26.0 mph 83 % 0.00 in 0 W/m2
05:43 59.7 °F 54.5 °F 29.65 in SW 15.0 mph 30.0 mph 83 % 0.00 in 0 W/m2
05:48 59.7 °F 54.5 °F 29.64 in SW 17.0 mph 30.0 mph 83 % 0.00 in 0 W/m2
05:54 59.7 °F 54.5 °F 29.64 in SW 17.0 mph 35.0 mph 83 % 0.00 in 0 W/m2
05:59 59.7 °F 54.5 °F 29.64 in SW 17.0 mph 35.0 mph 83 % 0.00 in 0 W/m2
06:04 59.7 °F 54.5 °F 29.63 in SW 17.0 mph 30.0 mph 83 % 0.00 in 0 W/m2
06:09 59.7 °F 54.2 °F 29.64 in SW 18.0 mph 34.0 mph 82 % 0.00 in 0 W/m2
06:14 59.9 °F 54.4 °F 29.64 in SW 19.0 mph 34.0 mph 82 % 0.00 in 0 W/m2
06:19 59.9 °F 54.4 °F 29.64 in SW 17.0 mph 29.0 mph 82 % 0.00 in 0 W/m2
06:24 59.9 °F 54.4 °F 29.64 in SW 15.0 mph 29.0 mph 82 % 0.00 in 0 W/m2
06:29 59.9 °F 54.4 °F 29.64 in SW 15.0 mph 27.0 mph 82 % 0.00 in 0 W/m2
06:34 59.9 °F 54.4 °F 29.64 in SW 16.0 mph 31.0 mph 82 % 0.00 in 0 W/m2
06:39 59.9 °F 54.4 °F 29.64 in SW 16.0 mph 31.0 mph 82 % 0.00 in 0 W/m2
06:44 59.9 °F 54.1 °F 29.64 in SW 15.0 mph 31.0 mph 81 % 0.00 in 0 W/m2
06:49 59.9 °F 54.4 °F 29.64 in SW 15.0 mph 25.0 mph 82 % 0.00 in 0 W/m2
06:54 59.9 °F 54.1 °F 29.64 in SW 17.0 mph 29.0 mph 81 % 0.00 in 0 W/m2
06:59 60.1 °F 54.2 °F 29.64 in SW 19.0 mph 30.0 mph 81 % 0.00 in 0 W/m2
07:04 60.1 °F 54.2 °F 29.64 in SW 17.0 mph 31.0 mph 81 % 0.00 in 0 W/m2
07:09 59.9 °F 54.1 °F 29.64 in SW 14.0 mph 31.0 mph 81 % 0.00 in 0 W/m2
07:14 59.7 °F 53.9 °F 29.64 in SW 15.0 mph 26.0 mph 81 % 0.00 in 0 W/m2
07:16 59.7 °F 53.9 °F 29.64 in SW 15.0 mph 26.0 mph 81 % 0.00 in 0 W/m2
07:20 59.7 °F 53.9 °F 29.64 in SW 15.0 mph 26.0 mph 81 % 0.00 in 0 W/m2
07:26 59.7 °F 53.9 °F 29.64 in SW 14.0 mph 26.0 mph 81 % 0.00 in 0 W/m2
07:31 59.7 °F 53.9 °F 29.64 in SW 15.0 mph 27.0 mph 81 % 0.00 in 0 W/m2
07:36 59.7 °F 53.9 °F 29.64 in SW 17.0 mph 30.0 mph 81 % 0.00 in 0 W/m2
07:41 59.7 °F 53.9 °F 29.64 in SW 17.0 mph 30.0 mph 81 % 0.00 in 5 W/m2
07:46 59.5 °F 53.7 °F 29.64 in SW 15.0 mph 25.0 mph 81 % 0.00 in 9 W/m2
07:51 59.5 °F 53.7 °F 29.64 in SW 15.0 mph 27.0 mph 81 % 0.00 in 14 W/m2
08:01 59.5 °F 53.7 °F 29.64 in SW 15.0 mph 30.0 mph 81 % 0.00 in 21 W/m2
08:06 59.5 °F 53.7 °F 29.64 in SW 17.0 mph 30.0 mph 81 % 0.00 in 25 W/m2
08:11 59.5 °F 53.4 °F 29.64 in SW 18.0 mph 33.0 mph 80 % 0.00 in 26 W/m2
08:16 59.5 °F 53.4 °F 29.64 in SW 18.0 mph 33.0 mph 80 % 0.00 in 30 W/m2
08:21 59.5 °F 53.4 °F 29.64 in SW 16.0 mph 31.0 mph 80 % 0.00 in 33 W/m2
08:26 59.4 °F 53.2 °F 29.64 in SW 17.0 mph 30.0 mph 80 % 0.00 in 39 W/m2
08:31 59.4 °F 53.2 °F 29.63 in SW 17.0 mph 30.0 mph 80 % 0.00 in 42 W/m2
08:36 59.4 °F 53.2 °F 29.63 in SW 16.0 mph 27.0 mph 80 % 0.00 in 44 W/m2
08:41 59.4 °F 53.5 °F 29.63 in SW 16.0 mph 28.0 mph 81 % 0.00 in 44 W/m2
08:46 59.4 °F 53.2 °F 29.64 in SW 17.0 mph 31.0 mph 80 % 0.00 in 51 W/m2
08:51 59.4 °F 53.2 °F 29.64 in SW 20.0 mph 38.0 mph 80 % 0.00 in 63 W/m2
08:56 59.4 °F 53.2 °F 29.63 in SW 19.0 mph 38.0 mph 80 % 0.00 in 77 W/m2
09:01 59.4 °F 53.2 °F 29.63 in SW 18.0 mph 28.0 mph 80 % 0.00 in 79 W/m2
09:06 59.4 °F 53.2 °F 29.63 in SW 18.0 mph 29.0 mph 80 % 0.00 in 84 W/m2
09:11 59.4 °F 53.2 °F 29.63 in SW 18.0 mph 32.0 mph 80 % 0.00 in 91 W/m2
09:16 59.4 °F 53.2 °F 29.63 in SW 17.0 mph 32.0 mph 80 % 0.00 in 105 W/m2
09:21 59.4 °F 53.2 °F 29.63 in SW 17.0 mph 33.0 mph 80 % 0.00 in 116 W/m2
09:26 59.5 °F 53.0 °F 29.63 in SW 19.0 mph 33.0 mph 79 % 0.00 in 121 W/m2
09:31 59.5 °F 53.0 °F 29.63 in SW 19.0 mph 32.0 mph 79 % 0.00 in 107 W/m2
09:36 59.5 °F 53.0 °F 29.63 in SW 19.0 mph 32.0 mph 79 % 0.00 in 113 W/m2
09:41 59.5 °F 53.0 °F 29.63 in SW 19.0 mph 39.0 mph 79 % 0.00 in 139 W/m2
09:46 59.7 °F 53.2 °F 29.63 in SW 21.0 mph 39.0 mph 79 % 0.00 in 141 W/m2
09:51 59.7 °F 53.2 °F 29.64 in SW 20.0 mph 39.0 mph 79 % 0.00 in 116 W/m2
09:57 59.7 °F 52.8 °F 29.63 in SW 18.0 mph 30.0 mph 78 % 0.00 in 105 W/m2
10:02 59.7 °F 52.8 °F 29.63 in SW 19.0 mph 30.0 mph 78 % 0.00 in 81 W/m2
10:07 59.7 °F 52.8 °F 29.63 in SW 19.0 mph 30.0 mph 78 % 0.00 in 84 W/m2
10:12 59.5 °F 52.7 °F 29.64 in SW 20.0 mph 31.0 mph 78 % 0.00 in 109 W/m2
10:17 59.5 °F 53.0 °F 29.63 in SW 20.0 mph 31.0 mph 79 % 0.00 in 116 W/m2
10:22 59.7 °F 52.8 °F 29.64 in SW 19.0 mph 30.0 mph 78 % 0.00 in 100 W/m2
10:27 59.7 °F 52.8 °F 29.64 in SW 18.0 mph 30.0 mph 78 % 0.00 in 90 W/m2
10:32 59.7 °F 53.2 °F 29.64 in SW 17.0 mph 31.0 mph 79 % 0.00 in 95 W/m2
10:37 59.5 °F 52.7 °F 29.64 in SW 19.0 mph 34.0 mph 78 % 0.00 in 104 W/m2
10:42 59.5 °F 52.7 °F 29.63 in SSW 20.0 mph 34.0 mph 78 % 0.00 in 105 W/m2
10:47 59.7 °F 52.8 °F 29.63 in SW 19.0 mph 32.0 mph 78 % 0.00 in 100 W/m2
10:52 59.5 °F 52.7 °F 29.63 in SSW 18.0 mph 32.0 mph 78 % 0.00 in 104 W/m2
10:57 59.5 °F 52.7 °F 29.64 in SSW 17.0 mph 29.0 mph 78 % 0.00 in 84 W/m2
11:02 59.5 °F 52.7 °F 29.64 in SSW 17.0 mph 29.0 mph 78 % 0.00 in 72 W/m2
11:07 59.4 °F 52.5 °F 29.64 in SW 17.0 mph 28.0 mph 78 % 0.00 in 65 W/m2
11:12 59.4 °F 52.8 °F 29.63 in SSW 18.0 mph 28.0 mph 79 % 0.00 in 77 W/m2
11:17 59.4 °F 52.8 °F 29.63 in SSW 17.0 mph 28.0 mph 79 % 0.00 in 95 W/m2
11:22 59.4 °F 52.8 °F 29.63 in SSW 15.0 mph 28.0 mph 79 % 0.00 in 81 W/m2
11:27 59.4 °F 52.5 °F 29.63 in SSW 15.0 mph 26.0 mph 78 % 0.00 in 79 W/m2
11:32 59.4 °F 52.8 °F 29.63 in SSW 15.0 mph 26.0 mph 79 % 0.00 in 100 W/m2
11:37 59.4 °F 52.8 °F 29.62 in SSW 15.0 mph 24.0 mph 79 % 0.00 in 105 W/m2
11:38 59.4 °F 52.8 °F 29.62 in SSW 14.0 mph 24.0 mph 79 % 0.00 in 144 W/m2
11:43 59.5 °F 53.0 °F 29.62 in SSW 15.0 mph 24.0 mph 79 % 0.00 in 120 W/m2
11:49 59.5 °F 53.0 °F 29.62 in SSW 15.0 mph 29.0 mph 79 % 0.00 in 139 W/m2
11:54 59.4 °F 52.8 °F 29.62 in SSW 15.0 mph 29.0 mph 79 % 0.00 in 118 W/m2
12:04 59.2 °F 53.4 °F 29.62 in SSW 15.0 mph 29.0 mph 81 % 0.00 in 176 W/m2
12:09 59.2 °F 53.4 °F 29.62 in SSW 18.0 mph 32.0 mph 81 % 0.00 in 125 W/m2
12:14 58.8 °F 53.3 °F 29.62 in SSW 17.0 mph 32.0 mph 82 % 0.00 in 134 W/m2
12:19 58.6 °F 53.5 °F 29.62 in SSW 17.0 mph 27.0 mph 83 % 0.00 in 128 W/m2
12:24 58.5 °F 53.6 °F 29.62 in SW 16.0 mph 25.0 mph 84 % 0.00 in 107 W/m2
12:29 58.3 °F 53.8 °F 29.62 in SSW 15.0 mph 25.0 mph 85 % 0.00 in 86 W/m2
12:32 58.1 °F 53.9 °F 29.62 in SSW 14.0 mph 25.0 mph 86 % 0.00 in 86 W/m2
12:37 57.9 °F 53.8 °F 29.61 in SW 13.0 mph 24.0 mph 86 % 0.00 in 65 W/m2
12:42 57.7 °F 53.6 °F 29.61 in SSW 12.0 mph 24.0 mph 86 % 0.00 in 70 W/m2
12:47 57.7 °F 53.9 °F 29.61 in SSW 12.0 mph 24.0 mph 87 % 0.00 in 70 W/m2
12:52 57.7 °F 53.6 °F 29.61 in SSW 13.0 mph 24.0 mph 86 % 0.00 in 81 W/m2
12:57 57.7 °F 53.3 °F 29.61 in SSW 16.0 mph 32.0 mph 85 % 0.00 in 111 W/m2
13:07 57.9 °F 53.4 °F 29.60 in SSW 17.0 mph 27.0 mph 85 % 0.00 in 132 W/m2
13:17 58.1 °F 53.6 °F 29.60 in SW 17.0 mph 29.0 mph 85 % 0.00 in 105 W/m2
13:22 58.1 °F 53.6 °F 29.59 in SSW 16.0 mph 29.0 mph 85 % 0.00 in 86 W/m2
13:27 58.1 °F 53.6 °F 29.59 in SSW 15.0 mph 27.0 mph 85 % 0.00 in 95 W/m2
13:32 58.1 °F 53.6 °F 29.59 in SSW 15.0 mph 27.0 mph 85 % 0.00 in 93 W/m2
13:37 58.1 °F 53.6 °F 29.59 in SSW 16.0 mph 25.0 mph 85 % 0.00 in 83 W/m2
13:42 58.1 °F 53.9 °F 29.59 in SSW 17.0 mph 32.0 mph 86 % 0.00 in 74 W/m2
13:47 57.9 °F 53.8 °F 29.59 in SW 15.0 mph 32.0 mph 86 % 0.00 in 76 W/m2
13:52 57.9 °F 54.1 °F 29.58 in SSW 13.0 mph 23.0 mph 87 % 0.00 in 118 W/m2
13:57 57.9 °F 54.1 °F 29.58 in SSW 13.0 mph 22.0 mph 87 % 0.00 in 104 W/m2
14:02 57.9 °F 54.1 °F 29.58 in SSW 13.0 mph 22.0 mph 87 % 0.00 in 60 W/m2
14:07 57.9 °F 54.1 °F 29.58 in SSW 12.0 mph 27.0 mph 87 % 0.00 in 42 W/m2
14:12 57.9 °F 54.1 °F 29.58 in SSW 12.0 mph 27.0 mph 87 % 0.00 in 58 W/m2
14:17 58.1 °F 54.2 °F 29.58 in SSW 13.0 mph 24.0 mph 87 % 0.00 in 56 W/m2
14:23 58.3 °F 54.4 °F 29.58 in SSW 13.0 mph 25.0 mph 87 % 0.00 in 56 W/m2
14:28 58.5 °F 54.6 °F 29.58 in SSW 14.0 mph 26.0 mph 87 % 0.00 in 47 W/m2
14:33 58.3 °F 54.4 °F 29.58 in SSW 15.0 mph 26.0 mph 87 % 0.00 in 39 W/m2
14:38 58.3 °F 54.7 °F 29.58 in SSW 16.0 mph 28.0 mph 88 % 0.00 in 26 W/m2
14:43 57.9 °F 54.7 °F 29.58 in SW 15.0 mph 28.0 mph 89 % 0.00 in 32 W/m2
14:48 57.9 °F 55.0 °F 29.59 in SW 13.0 mph 22.0 mph 90 % 0.00 in 46 W/m2
14:53 57.7 °F 54.8 °F 29.58 in SW 11.0 mph 21.0 mph 90 % 0.00 in 51 W/m2
14:58 57.7 °F 55.1 °F 29.59 in SW 11.0 mph 23.0 mph 91 % 0.00 in 37 W/m2
15:03 57.7 °F 55.1 °F 29.58 in SW 11.0 mph 23.0 mph 91 % 0.01 in 49 W/m2
15:08 57.7 °F 54.8 °F 29.59 in SW 10.0 mph 18.0 mph 90 % 0.01 in 42 W/m2
15:13 57.7 °F 54.8 °F 29.59 in SW 10.0 mph 19.0 mph 90 % 0.01 in 77 W/m2
15:18 57.9 °F 54.7 °F 29.59 in SW 11.0 mph 32.0 mph 89 % 0.01 in 97 W/m2
15:23 58.3 °F 54.1 °F 29.59 in WSW 14.0 mph 32.0 mph 86 % 0.01 in 135 W/m2
15:28 58.3 °F 54.1 °F 29.59 in WSW 14.0 mph 27.0 mph 86 % 0.01 in 206 W/m2
15:33 58.5 °F 54.3 °F 29.58 in SW 12.0 mph 22.0 mph 86 % 0.01 in 218 W/m2
15:38 58.5 °F 54.3 °F 29.58 in SW 12.0 mph 26.0 mph 86 % 0.01 in 216 W/m2
15:43 58.6 °F 54.5 °F 29.58 in SW 11.0 mph 26.0 mph 86 % 0.01 in 381 W/m2
15:48 59.0 °F 54.5 °F 29.58 in SW 12.0 mph 25.0 mph 85 % 0.01 in 445 W/m2
15:53 59.4 °F 54.8 °F 29.58 in SW 14.0 mph 25.0 mph 85 % 0.01 in 469 W/m2
15:58 59.5 °F 54.7 °F 29.58 in SW 14.0 mph 24.0 mph 84 % 0.00 in 336 W/m2
16:03 59.7 °F 54.5 °F 29.58 in SW 13.0 mph 24.0 mph 83 % 0.00 in 120 W/m2
16:08 59.5 °F 54.4 °F 29.58 in SW 12.0 mph 23.0 mph 83 % 0.00 in 113 W/m2
16:13 59.5 °F 54.7 °F 29.58 in SW 10.0 mph 23.0 mph 84 % 0.00 in 132 W/m2
16:18 59.2 °F 54.3 °F 29.58 in SW 11.0 mph 22.0 mph 84 % 0.00 in 77 W/m2
16:23 58.8 °F 54.3 °F 29.57 in WSW 15.0 mph 25.0 mph 85 % 0.00 in 151 W/m2
16:28 58.5 °F 54.3 °F 29.58 in WSW 17.0 mph 28.0 mph 86 % 0.00 in 137 W/m2
16:33 58.3 °F 54.4 °F 29.58 in SW 14.0 mph 28.0 mph 87 % 0.00 in 186 W/m2
16:38 57.9 °F 54.4 °F 29.58 in SW 12.0 mph 21.0 mph 88 % 0.00 in 97 W/m2
16:43 57.9 °F 54.4 °F 29.57 in SW 12.0 mph 20.0 mph 88 % 0.00 in 88 W/m2
16:48 57.7 °F 54.2 °F 29.57 in SW 13.0 mph 24.0 mph 88 % 0.00 in 54 W/m2
16:53 57.7 °F 54.5 °F 29.57 in SW 12.0 mph 24.0 mph 89 % 0.00 in 77 W/m2
16:58 57.6 °F 54.3 °F 29.57 in SW 12.0 mph 22.0 mph 89 % 0.00 in 58 W/m2
17:03 57.6 °F 54.3 °F 29.57 in SW 12.0 mph 22.0 mph 89 % 0.01 in 97 W/m2
17:08 57.4 °F 54.2 °F 29.57 in SW 12.0 mph 20.0 mph 89 % 0.01 in 39 W/m2
17:13 57.4 °F 54.5 °F 29.57 in SW 12.0 mph 20.0 mph 90 % 0.01 in 118 W/m2
17:18 57.4 °F 54.5 °F 29.57 in SW 11.0 mph 20.0 mph 90 % 0.01 in 69 W/m2
17:23 57.4 °F 54.8 °F 29.57 in SW 10.0 mph 18.0 mph 91 % 0.01 in 33 W/m2
17:28 57.2 °F 54.3 °F 29.57 in SW 9.0 mph 18.0 mph 90 % 0.01 in 25 W/m2
17:33 57.2 °F 54.3 °F 29.57 in SW 10.0 mph 18.0 mph 90 % 0.01 in 19 W/m2
17:38 57.2 °F 54.6 °F 29.57 in SW 9.0 mph 20.0 mph 91 % 0.01 in 12 W/m2
17:48 57.2 °F 54.6 °F 29.57 in SW 9.0 mph 15.0 mph 91 % 0.01 in 14 W/m2
17:53 57.2 °F 54.6 °F 29.58 in SW 10.0 mph 15.0 mph 91 % 0.02 in 5 W/m2
17:58 57.4 °F 54.8 °F 29.58 in WSW 10.0 mph 15.0 mph 91 % 0.02 in 7 W/m2
18:03 57.0 °F 54.4 °F 29.59 in WSW 12.0 mph 25.0 mph 91 % 0.01 in 11 W/m2
18:08 56.8 °F 53.9 °F 29.59 in West 13.0 mph 25.0 mph 90 % 0.02 in 7 W/m2
18:14 56.7 °F 53.5 °F 29.59 in West 11.0 mph 23.0 mph 89 % 0.02 in 0 W/m2
18:19 56.7 °F 53.5 °F 29.59 in West 9.0 mph 16.0 mph 89 % 0.02 in 5 W/m2
18:24 56.5 °F 53.3 °F 29.60 in West 8.0 mph 13.0 mph 89 % 0.02 in 0 W/m2
18:29 56.3 °F 53.1 °F 29.60 in West 9.0 mph 18.0 mph 89 % 0.02 in 0 W/m2
18:34 55.9 °F 52.7 °F 29.60 in West 8.0 mph 18.0 mph 89 % 0.02 in 0 W/m2
18:39 55.8 °F 52.6 °F 29.60 in West 8.0 mph 18.0 mph 89 % 0.02 in 0 W/m2
18:44 55.6 °F 52.4 °F 29.61 in West 9.0 mph 18.0 mph 89 % 0.02 in 0 W/m2
18:49 55.6 °F 52.4 °F 29.61 in West 9.0 mph 16.0 mph 89 % 0.02 in 0 W/m2
18:54 55.4 °F 52.2 °F 29.61 in West 10.0 mph 18.0 mph 89 % 0.01 in 0 W/m2
18:59 55.6 °F 52.4 °F 29.61 in West 12.0 mph 22.0 mph 89 % 0.01 in 0 W/m2
19:04 55.8 °F 52.3 °F 29.62 in West 13.0 mph 24.0 mph 88 % 0.01 in 0 W/m2
19:09 55.9 °F 52.4 °F 29.63 in West 14.0 mph 26.0 mph 88 % 0.00 in 0 W/m2
19:14 55.0 °F 50.0 °F 29.64 in West 18.0 mph 37.0 mph 83 % 0.00 in 0 W/m2
19:19 54.3 °F 49.3 °F 29.64 in West 18.0 mph 37.0 mph 83 % 0.00 in 0 W/m2
19:24 53.8 °F 48.7 °F 29.64 in West 15.0 mph 27.0 mph 83 % 0.00 in 0 W/m2
19:29 53.4 °F 48.7 °F 29.65 in West 14.0 mph 27.0 mph 84 % 0.00 in 0 W/m2
19:34 53.2 °F 48.8 °F 29.65 in West 12.0 mph 25.0 mph 85 % 0.00 in 0 W/m2
19:39 52.9 °F 48.8 °F 29.65 in West 12.0 mph 25.0 mph 86 % 0.00 in 0 W/m2
19:44 52.9 °F 49.1 °F 29.65 in West 11.0 mph 21.0 mph 87 % 0.00 in 0 W/m2
19:54 52.9 °F 49.1 °F 29.65 in West 15.0 mph 27.0 mph 87 % 0.00 in 0 W/m2
19:59 52.9 °F 49.1 °F 29.66 in West 15.0 mph 25.0 mph 87 % 0.00 in 0 W/m2
20:04 53.1 °F 49.3 °F 29.66 in West 16.0 mph 28.0 mph 87 % 0.00 in 0 W/m2
20:09 53.1 °F 49.0 °F 29.66 in West 17.0 mph 28.0 mph 86 % 0.00 in 0 W/m2
20:14 53.1 °F 49.0 °F 29.66 in West 15.0 mph 27.0 mph 86 % 0.00 in 0 W/m2
20:19 53.2 °F 49.2 °F 29.67 in West 16.0 mph 28.0 mph 86 % 0.00 in 0 W/m2
20:24 53.2 °F 49.2 °F 29.67 in West 17.0 mph 28.0 mph 86 % 0.00 in 0 W/m2
20:29 53.4 °F 49.0 °F 29.67 in West 16.0 mph 26.0 mph 85 % 0.00 in 0 W/m2
20:34 53.6 °F 49.2 °F 29.68 in West 16.0 mph 26.0 mph 85 % 0.00 in 0 W/m2
20:39 53.4 °F 49.0 °F 29.68 in West 16.0 mph 27.0 mph 85 % 0.00 in 0 W/m2
20:44 53.6 °F 49.2 °F 29.67 in West 16.0 mph 29.0 mph 85 % 0.00 in 0 W/m2
20:49 53.8 °F 49.4 °F 29.68 in West 17.0 mph 32.0 mph 85 % 0.00 in 0 W/m2
20:54 53.8 °F 49.4 °F 29.69 in West 17.0 mph 32.0 mph 85 % 0.00 in 0 W/m2
21:00 53.8 °F 49.4 °F 29.68 in West 16.0 mph 27.0 mph 85 % 0.00 in 0 W/m2
21:05 53.8 °F 49.1 °F 29.68 in West 16.0 mph 28.0 mph 84 % 0.00 in 0 W/m2
21:10 54.0 °F 49.2 °F 29.69 in West 18.0 mph 28.0 mph 84 % 0.00 in 0 W/m2
21:15 54.1 °F 49.1 °F 29.69 in West 18.0 mph 31.0 mph 83 % 0.00 in 0 W/m2
21:20 54.1 °F 49.4 °F 29.70 in West 15.0 mph 31.0 mph 84 % 0.00 in 0 W/m2
21:25 54.1 °F 49.4 °F 29.70 in West 14.0 mph 26.0 mph 84 % 0.00 in 0 W/m2
21:30 54.0 °F 49.2 °F 29.71 in West 16.0 mph 28.0 mph 84 % 0.00 in 0 W/m2
21:35 54.0 °F 49.2 °F 29.71 in West 16.0 mph 28.0 mph 84 % 0.00 in 0 W/m2
21:40 53.8 °F 48.7 °F 29.72 in West 14.0 mph 25.0 mph 83 % 0.00 in 0 W/m2
21:45 53.6 °F 48.6 °F 29.72 in West 12.0 mph 24.0 mph 83 % 0.00 in 0 W/m2
21:49 53.4 °F 48.1 °F 29.72 in West 12.0 mph 26.0 mph 82 % 0.00 in 0 W/m2
21:54 53.4 °F 48.4 °F 29.73 in West 11.0 mph 26.0 mph 83 % 0.00 in 0 W/m2
21:59 53.4 °F 48.4 °F 29.73 in West 11.0 mph 23.0 mph 83 % 0.00 in 0 W/m2
22:04 53.4 °F 48.4 °F 29.73 in West 11.0 mph 23.0 mph 83 % 0.00 in 0 W/m2
22:14 53.2 °F 48.5 °F 29.74 in West 10.0 mph 20.0 mph 84 % 0.00 in 0 W/m2
22:19 53.2 °F 48.5 °F 29.74 in West 11.0 mph 25.0 mph 84 % 0.00 in 0 W/m2
22:24 53.2 °F 48.5 °F 29.74 in West 13.0 mph 25.0 mph 84 % 0.00 in 0 W/m2
22:29 53.2 °F 48.5 °F 29.74 in West 13.0 mph 23.0 mph 84 % 0.00 in 0 W/m2
22:34 53.2 °F 48.5 °F 29.74 in West 14.0 mph 25.0 mph 84 % 0.00 in 0 W/m2
22:39 53.2 °F 48.5 °F 29.74 in West 15.0 mph 26.0 mph 84 % 0.00 in 0 W/m2
22:44 53.2 °F 48.5 °F 29.74 in West 15.0 mph 26.0 mph 84 % 0.00 in 0 W/m2
22:49 53.2 °F 48.5 °F 29.74 in West 13.0 mph 24.0 mph 84 % 0.00 in 0 W/m2
22:54 53.1 °F 48.4 °F 29.75 in West 12.0 mph 21.0 mph 84 % 0.00 in 0 W/m2
22:59 52.9 °F 47.9 °F 29.75 in West 11.0 mph 21.0 mph 83 % 0.00 in 0 W/m2
23:09 52.5 °F 47.5 °F 29.76 in WNW 13.0 mph 24.0 mph 83 % 0.00 in 0 W/m2
23:14 52.5 °F 47.2 °F 29.76 in West 11.0 mph 24.0 mph 82 % 0.00 in 0 W/m2
23:20 52.3 °F 47.0 °F 29.77 in WNW 10.0 mph 21.0 mph 82 % 0.00 in 0 W/m2
23:25 52.3 °F 47.0 °F 29.77 in WNW 12.0 mph 23.0 mph 82 % 0.00 in 0 W/m2
23:30 52.3 °F 47.0 °F 29.77 in West 11.0 mph 23.0 mph 82 % 0.00 in 0 W/m2
23:35 52.2 °F 46.8 °F 29.77 in West 10.0 mph 19.0 mph 82 % 0.00 in 0 W/m2
23:40 52.0 °F 46.3 °F 29.77 in West 11.0 mph 28.0 mph 81 % 0.00 in 0 W/m2
23:45 52.0 °F 46.0 °F 29.78 in West 11.0 mph 28.0 mph 80 % 0.00 in 0 W/m2
23:50 51.8 °F 45.8 °F 29.78 in West 11.0 mph 20.0 mph 80 % 0.00 in 0 W/m2
23:55 51.6 °F 45.3 °F 29.78 in West 11.0 mph 27.0 mph 79 % 0.00 in 0 W/m2
Delerius-Weather
Compliments of Weather Underground - 2.25 mb

Data updates at regular intervals.